createdAt,value
2022-11-05T00:02:44.408Z,85.99
2022-11-05T00:05:34.674Z,85.37
2022-11-05T00:08:24.972Z,85.69
2022-11-05T00:10:56.688Z,85.43
2022-11-05T00:13:46.775Z,85.73
2022-11-05T00:16:41.445Z,86.36
2022-11-05T00:19:13.651Z,85.72
2022-11-05T00:22:03.907Z,85.44
2022-11-05T00:24:53.750Z,84.78
2022-11-05T00:27:25.439Z,85.28
2022-11-05T00:29:56.991Z,85.63
2022-11-05T00:32:28.665Z,86.08
2022-11-05T00:35:00.199Z,85.71
2022-11-05T00:37:31.951Z,85.59
2022-11-05T00:40:04.552Z,86.15
2022-11-05T00:42:54.913Z,86.48
2022-11-05T00:45:26.855Z,86.71
2022-11-05T00:48:17.365Z,86.08
2022-11-05T00:50:48.854Z,86.16
2022-11-05T00:53:20.697Z,86.34
2022-11-05T00:55:53.461Z,87.05
2022-11-05T00:58:25.016Z,86.21
2022-11-05T01:00:58.856Z,86.19
2022-11-05T01:03:36.260Z,86.45
2022-11-05T01:06:15.790Z,86.77
2022-11-05T01:08:47.490Z,86.38
2022-11-05T01:11:35.104Z,86.06
2022-11-05T01:14:10.040Z,86.19
2022-11-05T01:16:42.362Z,86.07
2022-11-05T01:19:13.976Z,85.97
2022-11-05T01:21:45.388Z,85.93
2022-11-05T01:24:16.851Z,86.09
2022-11-05T01:26:48.306Z,86.04
2022-11-05T01:29:19.894Z,85.65
2022-11-05T01:31:51.294Z,85.53
2022-11-05T01:34:23.025Z,85.50
2022-11-05T01:36:54.307Z,85.89
2022-11-05T01:39:25.916Z,85.75
2022-11-05T01:41:58.748Z,85.61
2022-11-05T01:44:58.421Z,86.48
2022-11-05T01:47:48.550Z,85.74
2022-11-05T01:50:22.928Z,85.69
2022-11-05T01:53:17.880Z,85.68
2022-11-05T01:56:02.140Z,85.92
2022-11-05T01:58:39.645Z,85.76
2022-11-05T02:01:12.250Z,86.51
2022-11-05T02:03:45.552Z,85.42
2022-11-05T02:06:18.034Z,85.73
2022-11-05T02:09:02.165Z,86.61
2022-11-05T02:11:34.192Z,86.52
2022-11-05T02:14:05.694Z,86.39
2022-11-05T02:17:04.111Z,86.22
2022-11-05T02:20:06.456Z,86.58
2022-11-05T02:22:51.683Z,86.09
2022-11-05T02:25:54.109Z,86.91
2022-11-05T02:28:57.467Z,86.64
2022-11-05T02:31:52.413Z,86.26
2022-11-05T02:34:57.661Z,86.47
2022-11-05T02:37:39.393Z,86.43
2022-11-05T02:40:17.353Z,86.54
2022-11-05T02:43:15.136Z,87.39
2022-11-05T02:46:01.910Z,86.91
2022-11-05T02:48:49.308Z,86.67
2022-11-05T02:51:29.684Z,87.30
2022-11-05T02:54:35.094Z,87.69
2022-11-05T02:57:06.875Z,87.61
2022-11-05T02:59:38.139Z,87.00
2022-11-05T03:02:09.691Z,86.90
2022-11-05T03:04:41.337Z,87.58
2022-11-05T03:07:37.925Z,87.82
2022-11-05T03:10:14.266Z,87.70
2022-11-05T03:12:48.419Z,87.72
2022-11-05T03:15:54.821Z,86.91
2022-11-05T03:18:26.554Z,86.75
2022-11-05T03:21:11.472Z,88.04
2022-11-05T03:23:55.095Z,87.40
2022-11-05T03:26:31.062Z,86.74
2022-11-05T03:29:08.473Z,87.42
2022-11-05T03:31:41.629Z,87.87
2022-11-05T03:34:16.565Z,87.58
2022-11-05T03:36:53.512Z,87.78
2022-11-05T03:39:32.150Z,87.69
2022-11-05T03:42:06.276Z,87.22
2022-11-05T03:44:41.639Z,87.40
2022-11-05T03:47:22.157Z,87.62
2022-11-05T03:50:07.618Z,87.31
2022-11-05T03:52:48.547Z,88.05
2022-11-05T03:55:27.771Z,86.73
2022-11-05T03:57:59.447Z,86.96
2022-11-05T04:00:30.979Z,87.86
2022-11-05T04:03:02.372Z,87.29
2022-11-05T04:05:33.807Z,86.91
2022-11-05T04:08:23.800Z,87.88
2022-11-05T04:11:13.647Z,87.72
2022-11-05T04:13:44.980Z,87.71
2022-11-05T04:16:34.830Z,88.13
2022-11-05T04:19:06.560Z,87.67
2022-11-05T04:21:56.567Z,87.23
2022-11-05T04:24:27.861Z,88.48
2022-11-05T04:26:59.254Z,88.16
2022-11-05T04:29:49.066Z,88.14
2022-11-05T04:32:20.364Z,88.06
2022-11-05T04:34:51.628Z,87.99
2022-11-05T04:37:22.987Z,88.37
2022-11-05T04:39:54.247Z,87.80
2022-11-05T04:42:25.545Z,87.60
2022-11-05T04:44:56.869Z,87.99
2022-11-05T04:47:28.211Z,88.57
2022-11-05T04:49:59.569Z,88.25
2022-11-05T04:52:30.836Z,88.17
2022-11-05T04:55:02.127Z,87.71
2022-11-05T04:57:33.592Z,88.46
2022-11-05T05:00:07.466Z,88.16
2022-11-05T05:02:38.767Z,87.67
2022-11-05T05:05:10.341Z,88.02
2022-11-05T05:07:42.242Z,88.13
2022-11-05T05:10:13.641Z,87.50
2022-11-05T05:12:44.962Z,88.26
2022-11-05T05:15:16.289Z,87.98
2022-11-05T05:17:51.835Z,87.91
2022-11-05T05:20:41.636Z,88.16
2022-11-05T05:23:13.242Z,87.84
2022-11-05T05:25:44.727Z,88.16
2022-11-05T05:28:15.999Z,87.88
2022-11-05T05:30:47.249Z,88.48
2022-11-05T05:33:18.544Z,88.52
2022-11-05T05:35:49.804Z,88.28
2022-11-05T05:38:21.090Z,88.28
2022-11-05T05:40:52.492Z,87.91
2022-11-05T05:43:23.787Z,88.06
2022-11-05T05:45:57.180Z,87.86
2022-11-05T05:48:28.603Z,87.92
2022-11-05T05:51:04.916Z,87.60
2022-11-05T05:53:36.606Z,87.87
2022-11-05T05:56:08.188Z,88.29
2022-11-05T05:58:39.489Z,87.96
2022-11-05T06:01:18.661Z,88.02
2022-11-05T06:03:50.758Z,87.56
2022-11-05T06:06:22.611Z,87.44
2022-11-05T06:08:56.047Z,87.64
2022-11-05T06:11:27.671Z,88.31
2022-11-05T06:13:58.966Z,87.93
2022-11-05T06:16:35.400Z,87.74
2022-11-05T06:19:07.495Z,87.63
2022-11-05T06:21:38.769Z,87.70
2022-11-05T06:24:10.363Z,88.16
2022-11-05T06:26:43.178Z,87.53
2022-11-05T06:29:14.450Z,87.40
2022-11-05T06:31:45.751Z,87.98
2022-11-05T06:34:17.029Z,87.73
2022-11-05T06:36:48.366Z,87.23
2022-11-05T06:39:19.693Z,88.06
2022-11-05T06:42:16.619Z,87.48
2022-11-05T06:44:42.298Z,87.57
2022-11-05T06:47:13.594Z,88.02
2022-11-05T06:49:45.904Z,87.76
2022-11-05T06:52:17.900Z,87.53
2022-11-05T06:54:49.593Z,87.74
2022-11-05T06:57:20.868Z,88.43
2022-11-05T06:59:57.092Z,88.45
2022-11-05T07:02:31.408Z,87.87
2022-11-05T07:05:02.765Z,88.49
2022-11-05T07:07:34.087Z,87.93
2022-11-05T07:10:07.947Z,88.44
2022-11-05T07:12:39.236Z,88.30
2022-11-05T07:15:12.288Z,88.51
2022-11-05T07:17:43.544Z,88.10
2022-11-05T07:20:14.926Z,88.00
2022-11-05T07:22:46.179Z,88.56
2022-11-05T07:25:17.600Z,88.84
2022-11-05T07:27:48.878Z,88.93
2022-11-05T07:30:20.152Z,88.92
2022-11-05T07:32:51.843Z,89.00
2022-11-05T07:35:23.843Z,88.75
2022-11-05T07:37:55.639Z,89.37
2022-11-05T07:40:29.182Z,89.38
2022-11-05T07:43:01.775Z,89.12
2022-11-05T07:45:33.058Z,89.09
2022-11-05T07:48:04.926Z,89.66
2022-11-05T07:50:37.601Z,90.53
2022-11-05T07:53:14.479Z,89.79
2022-11-05T07:55:46.128Z,90.71
2022-11-05T07:58:17.389Z,90.07
2022-11-05T08:00:48.825Z,90.51
2022-11-05T08:03:20.757Z,90.59
2022-11-05T08:05:52.349Z,90.56
2022-11-05T08:08:23.654Z,91.08
2022-11-05T08:11:02.837Z,90.90
2022-11-05T08:13:34.437Z,91.38
2022-11-05T08:16:06.039Z,91.26
2022-11-05T08:18:37.515Z,91.65
2022-11-05T08:21:09.498Z,91.86
2022-11-05T08:23:42.563Z,91.25
2022-11-05T08:26:13.877Z,91.78
2022-11-05T08:28:45.243Z,91.32
2022-11-05T08:31:18.033Z,91.41
2022-11-05T08:33:49.413Z,91.92
2022-11-05T08:36:20.700Z,92.21
2022-11-05T08:38:52.051Z,92.07
2022-11-05T08:41:23.405Z,92.07
2022-11-05T08:43:56.171Z,92.27
2022-11-05T08:46:27.532Z,92.14
2022-11-05T08:48:58.780Z,92.34
2022-11-05T08:51:30.765Z,92.40
2022-11-05T08:54:02.124Z,92.12
2022-11-05T08:56:33.376Z,92.27
2022-11-05T08:59:04.638Z,92.28
2022-11-05T09:01:36.185Z,92.22
2022-11-05T09:04:08.091Z,91.89
2022-11-05T09:06:39.379Z,92.66
2022-11-05T09:09:10.806Z,92.45
2022-11-05T09:12:10.136Z,91.84
2022-11-05T09:14:33.474Z,92.04
2022-11-05T09:17:05.481Z,91.82
2022-11-05T09:19:39.955Z,92.03
2022-11-05T09:22:12.839Z,91.72
2022-11-05T09:24:44.225Z,91.89
2022-11-05T09:27:15.639Z,91.09
2022-11-05T09:29:46.907Z,91.30
2022-11-05T09:32:19.274Z,91.33
2022-11-05T09:34:50.622Z,91.56
2022-11-05T09:37:22.035Z,90.79
2022-11-05T09:39:53.637Z,90.30
2022-11-05T09:42:37.783Z,90.27
2022-11-05T09:45:18.964Z,90.40
2022-11-05T09:47:57.577Z,90.57
2022-11-05T09:50:50.186Z,90.03
2022-11-05T09:53:23.805Z,89.51
2022-11-05T09:55:57.644Z,90.08
2022-11-05T09:58:39.232Z,89.28
2022-11-05T10:01:15.888Z,89.09
2022-11-05T10:03:50.733Z,89.02
2022-11-05T10:06:24.936Z,88.61
2022-11-05T10:09:26.541Z,87.90
2022-11-05T10:12:07.507Z,87.73
2022-11-05T10:14:45.571Z,87.58
2022-11-05T10:17:22.396Z,87.35
2022-11-05T10:20:02.451Z,87.21
2022-11-05T10:22:33.776Z,86.80
2022-11-05T10:25:17.268Z,86.82
2022-11-05T10:27:54.638Z,86.43
2022-11-05T10:30:26.230Z,86.37
2022-11-05T10:33:02.358Z,86.03
2022-11-05T10:35:41.148Z,86.08
2022-11-05T10:38:17.549Z,85.68
2022-11-05T10:41:34.527Z,84.79
2022-11-05T10:44:26.480Z,84.98
2022-11-05T10:47:27.633Z,84.11
2022-11-05T10:50:12.991Z,84.16
2022-11-05T10:53:02.584Z,83.59
2022-11-05T10:55:54.259Z,83.10
2022-11-05T10:58:31.610Z,82.69
2022-11-05T11:01:10.519Z,82.07
2022-11-05T11:03:49.081Z,81.38
2022-11-05T11:06:25.990Z,80.80
2022-11-05T11:09:01.701Z,80.51
2022-11-05T11:11:36.040Z,79.94
2022-11-05T11:14:13.442Z,78.91
2022-11-05T11:16:47.295Z,78.92
2022-11-05T11:19:30.263Z,78.29
2022-11-05T11:22:04.524Z,77.95
2022-11-05T11:24:44.071Z,77.79
2022-11-05T11:27:28.462Z,77.68
2022-11-05T11:30:05.298Z,77.49
2022-11-05T11:32:39.419Z,76.78
2022-11-05T11:35:24.891Z,75.87
2022-11-05T11:37:57.771Z,76.40
2022-11-05T11:40:36.368Z,75.91
2022-11-05T11:43:29.319Z,75.22
2022-11-05T11:46:06.069Z,75.26
2022-11-05T11:48:40.928Z,74.97
2022-11-05T11:51:32.163Z,74.16
2022-11-05T11:54:04.840Z,74.33
2022-11-05T11:56:44.671Z,73.95
2022-11-05T11:59:53.752Z,73.54
2022-11-05T12:02:38.545Z,73.59
2022-11-05T12:05:41.705Z,72.19
2022-11-05T12:08:30.420Z,72.80
2022-11-05T12:11:18.477Z,72.67
2022-11-05T12:14:00.554Z,72.85
2022-11-05T12:16:56.829Z,72.47
2022-11-05T12:19:49.989Z,72.80
2022-11-05T12:22:46.208Z,72.88
2022-11-05T12:26:03.779Z,72.86
2022-11-05T12:29:12.319Z,73.22
2022-11-05T12:32:17.242Z,72.88
2022-11-05T12:35:06.640Z,73.17
2022-11-05T12:37:56.791Z,72.96
2022-11-05T12:40:36.711Z,72.73
2022-11-05T12:43:34.076Z,72.41
2022-11-05T12:46:18.167Z,72.54
2022-11-05T12:48:58.599Z,72.62
2022-11-05T12:51:42.028Z,72.57
2022-11-05T12:54:34.663Z,72.65
2022-11-05T12:57:12.273Z,72.98
2022-11-05T12:59:54.299Z,73.22
2022-11-05T13:02:37.666Z,72.87
2022-11-05T13:05:36.414Z,72.98
2022-11-05T13:08:16.208Z,72.59
2022-11-05T13:10:55.813Z,72.59
2022-11-05T13:13:41.258Z,72.59
2022-11-05T13:16:18.335Z,72.68
2022-11-05T13:18:54.380Z,72.37
2022-11-05T13:21:37.727Z,72.36
2022-11-05T13:24:25.558Z,71.53
2022-11-05T13:27:15.759Z,71.64
2022-11-05T13:29:59.507Z,71.79
2022-11-05T13:32:35.536Z,72.29
2022-11-05T13:35:15.895Z,71.91
2022-11-05T13:38:12.930Z,72.07
2022-11-05T13:41:09.553Z,72.16
2022-11-05T13:43:55.941Z,72.32
2022-11-05T13:46:55.017Z,72.30
2022-11-05T13:50:00.817Z,72.32
2022-11-05T13:52:57.352Z,72.60
2022-11-05T13:55:47.524Z,72.99
2022-11-05T13:58:41.855Z,72.81
2022-11-05T14:01:29.990Z,72.65
2022-11-05T14:04:02.919Z,72.65
2022-11-05T14:06:36.294Z,72.56
2022-11-05T14:09:11.748Z,72.10
2022-11-05T14:11:50.792Z,71.87
2022-11-05T14:14:30.430Z,71.93
2022-11-05T14:17:07.987Z,71.74
2022-11-05T14:20:22.468Z,71.82
2022-11-05T14:22:53.811Z,71.87
2022-11-05T14:25:25.215Z,72.02
2022-11-05T14:27:57.981Z,72.29
2022-11-05T14:30:46.899Z,72.69
2022-11-05T14:33:33.062Z,73.06
2022-11-05T14:36:30.375Z,72.72
2022-11-05T14:39:18.828Z,73.30
2022-11-05T14:42:00.244Z,73.23
2022-11-05T14:44:34.915Z,73.65
2022-11-05T14:47:19.955Z,73.68
2022-11-05T14:50:03.420Z,73.66
2022-11-05T14:52:36.944Z,73.84
2022-11-05T14:55:26.227Z,74.07
2022-11-05T14:57:57.441Z,74.02
2022-11-05T15:00:28.751Z,74.29
2022-11-05T15:03:02.971Z,74.54
2022-11-05T15:05:48.592Z,74.57
2022-11-05T15:08:34.698Z,74.86
2022-11-05T15:11:35.502Z,74.83
2022-11-05T15:14:30.153Z,75.31
2022-11-05T15:17:33.062Z,75.40
2022-11-05T15:20:18.715Z,75.57
2022-11-05T15:22:56.591Z,75.76
2022-11-05T15:26:03.443Z,76.02
2022-11-05T15:28:47.851Z,76.28
2022-11-05T15:31:29.045Z,76.47
2022-11-05T15:34:19.109Z,76.76
2022-11-05T15:36:54.840Z,76.76
2022-11-05T15:39:46.412Z,77.19
2022-11-05T15:42:27.975Z,77.05
2022-11-05T15:45:00.009Z,76.98
2022-11-05T15:47:34.541Z,77.14
2022-11-05T15:50:15.270Z,77.60
2022-11-05T15:52:52.332Z,77.67
2022-11-05T15:55:26.109Z,77.59
2022-11-05T15:58:00.775Z,77.37
2022-11-05T16:00:36.371Z,78.16
2022-11-05T16:03:22.840Z,78.28
2022-11-05T16:05:54.721Z,78.17
2022-11-05T16:08:28.083Z,77.99
2022-11-05T16:11:00.638Z,78.03
2022-11-05T16:13:35.801Z,77.92
2022-11-05T16:16:24.219Z,78.06
2022-11-05T16:18:55.601Z,77.91
2022-11-05T16:21:26.872Z,78.34
2022-11-05T16:24:00.112Z,78.55
2022-11-05T16:29:38.130Z,78.33
2022-11-05T16:32:30.674Z,78.23
2022-11-05T16:35:07.100Z,78.38
2022-11-05T16:37:41.013Z,78.22
2022-11-05T16:40:30.301Z,78.76
2022-11-05T16:43:29.271Z,79.01
2022-11-05T16:46:01.613Z,78.81
2022-11-05T16:48:32.952Z,79.02
2022-11-05T16:51:04.895Z,78.95
2022-11-05T16:53:36.345Z,78.71
2022-11-05T16:56:14.758Z,78.63
2022-11-05T16:58:48.488Z,78.91
2022-11-05T17:01:21.969Z,79.02
2022-11-05T17:03:53.511Z,79.06
2022-11-05T17:06:24.758Z,79.24
2022-11-05T17:08:56.044Z,79.22
2022-11-05T17:11:27.428Z,79.18
2022-11-05T17:13:58.751Z,79.45
2022-11-05T17:16:30.258Z,79.41
2022-11-05T17:19:01.718Z,79.14
2022-11-05T17:21:32.993Z,79.21
2022-11-05T17:24:04.720Z,79.35
2022-11-05T17:26:36.165Z,79.05
2022-11-05T17:29:07.512Z,80.04
2022-11-05T17:31:40.413Z,79.91
2022-11-05T17:34:11.779Z,79.58
2022-11-05T17:36:43.136Z,79.56
2022-11-05T17:39:14.484Z,80.30
2022-11-05T17:41:46.097Z,80.02
2022-11-05T17:44:17.797Z,80.22
2022-11-05T17:46:49.718Z,79.86
2022-11-05T17:49:20.992Z,80.01
2022-11-05T17:51:52.331Z,79.67
2022-11-05T17:54:23.767Z,79.79
2022-11-05T17:56:55.107Z,79.97
2022-11-05T17:59:26.393Z,80.35
2022-11-05T18:01:58.423Z,80.71
2022-11-05T18:04:29.810Z,80.71
2022-11-05T18:07:02.913Z,80.63
2022-11-05T18:09:34.240Z,80.84
2022-11-05T18:12:05.820Z,80.66
2022-11-05T18:14:37.310Z,80.75
2022-11-05T18:17:08.741Z,80.89
2022-11-05T18:19:40.180Z,80.69
2022-11-05T18:22:11.510Z,81.12
2022-11-05T18:24:42.883Z,81.47
2022-11-05T18:27:14.284Z,81.07
2022-11-05T18:29:46.195Z,80.95
2022-11-05T18:32:17.594Z,81.07
2022-11-05T18:34:48.986Z,81.36
2022-11-05T18:37:20.408Z,81.59
2022-11-05T18:39:52.867Z,81.41
2022-11-05T18:42:25.265Z,81.74
2022-11-05T18:44:56.691Z,81.75
2022-11-05T18:47:28.372Z,81.94
2022-11-05T18:50:00.540Z,81.74
2022-11-05T18:52:32.736Z,81.64
2022-11-05T18:55:04.677Z,81.99
2022-11-05T18:57:36.187Z,81.60
2022-11-05T19:00:08.323Z,81.30
2022-11-05T19:02:40.805Z,81.20
2022-11-05T19:05:28.539Z,81.39
2022-11-05T19:08:00.577Z,82.04
2022-11-05T19:10:31.911Z,81.80
2022-11-05T19:13:03.267Z,81.99
2022-11-05T19:15:34.609Z,81.52
2022-11-05T19:18:06.010Z,81.83
2022-11-05T19:20:38.673Z,82.02
2022-11-05T19:23:09.948Z,81.47
2022-11-05T19:25:41.258Z,81.74
2022-11-05T19:28:12.869Z,81.90
2022-11-05T19:30:45.275Z,81.28
2022-11-05T19:33:16.613Z,81.45
2022-11-05T19:35:47.958Z,81.50
2022-11-05T19:38:19.347Z,81.51
2022-11-05T19:40:50.687Z,81.46
2022-11-05T19:43:22.010Z,81.55
2022-11-05T19:45:53.383Z,81.41
2022-11-05T19:48:25.341Z,81.56
2022-11-05T19:50:56.891Z,81.65
2022-11-05T19:53:28.217Z,81.92
2022-11-05T19:55:59.623Z,82.17
2022-11-05T19:58:30.891Z,81.41
2022-11-05T20:01:02.653Z,81.59
2022-11-05T20:03:34.161Z,81.51
2022-11-05T20:06:11.143Z,81.55
2022-11-05T20:09:07.225Z,81.86
2022-11-05T20:11:39.817Z,81.46
2022-11-05T20:14:11.189Z,81.52
2022-11-05T20:16:44.826Z,81.75
2022-11-05T20:19:19.355Z,82.11
2022-11-05T20:21:50.818Z,81.91
2022-11-05T20:24:25.242Z,82.03
2022-11-05T20:26:57.371Z,81.81
2022-11-05T20:29:35.070Z,81.92
2022-11-05T20:32:07.536Z,82.14
2022-11-05T20:34:38.904Z,82.33
2022-11-05T20:37:10.189Z,81.76
2022-11-05T20:39:41.532Z,82.02
2022-11-05T20:42:13.108Z,81.51
2022-11-05T20:44:44.459Z,81.78
2022-11-05T20:47:15.906Z,81.24
2022-11-05T20:49:47.178Z,81.79
2022-11-05T20:52:18.471Z,81.42
2022-11-05T20:54:49.733Z,81.88
2022-11-05T20:57:21.092Z,81.43
2022-11-05T20:59:52.352Z,81.47
2022-11-05T21:02:23.761Z,81.11
2022-11-05T21:04:55.098Z,81.77
2022-11-05T21:07:26.392Z,81.52
2022-11-05T21:09:57.779Z,81.73
2022-11-05T21:12:29.353Z,81.25
2022-11-05T21:15:00.683Z,81.84
2022-11-05T21:17:31.993Z,81.80
2022-11-05T21:20:04.455Z,81.43
2022-11-05T21:22:35.834Z,81.09
2022-11-05T21:25:07.879Z,81.66
2022-11-05T21:27:43.424Z,81.40
2022-11-05T21:30:15.140Z,81.12
2022-11-05T21:32:46.532Z,81.13
2022-11-05T21:35:17.864Z,81.05
2022-11-05T21:37:49.252Z,81.37
2022-11-05T21:40:20.584Z,80.94
2022-11-05T21:42:51.848Z,81.14
2022-11-05T21:45:23.173Z,80.87
2022-11-05T21:47:54.512Z,80.68
2022-11-05T21:50:44.953Z,80.84
2022-11-05T21:53:35.998Z,80.87
2022-11-05T21:56:45.407Z,80.73
2022-11-05T21:59:38.869Z,81.36
2022-11-05T22:02:13.210Z,80.86
2022-11-05T22:04:46.922Z,81.19
2022-11-05T22:07:21.652Z,80.66
2022-11-05T22:09:53.309Z,81.33
2022-11-05T22:12:25.326Z,80.87
2022-11-05T22:14:57.094Z,80.95
2022-11-05T22:17:28.942Z,81.14
2022-11-05T22:20:00.255Z,80.49
2022-11-05T22:22:32.025Z,80.78
2022-11-05T22:25:04.297Z,80.41
2022-11-05T22:27:35.567Z,80.12
2022-11-05T22:30:07.226Z,80.45
2022-11-05T22:32:38.848Z,80.61
2022-11-05T22:35:10.406Z,80.75
2022-11-05T22:37:41.716Z,80.89
2022-11-05T22:40:13.043Z,80.61
2022-11-05T22:42:44.403Z,80.69
2022-11-05T22:45:15.822Z,80.78
2022-11-05T22:47:47.143Z,80.09
2022-11-05T22:50:18.471Z,80.62
2022-11-05T22:52:49.745Z,80.69
2022-11-05T22:55:21.095Z,79.88
2022-11-05T22:57:52.481Z,80.47
2022-11-05T23:00:37.795Z,80.14
2022-11-05T23:03:09.240Z,80.20
2022-11-05T23:05:40.605Z,80.08
2022-11-05T23:08:30.350Z,80.01
2022-11-05T23:11:20.115Z,80.09
2022-11-05T23:13:51.419Z,79.92
2022-11-05T23:16:41.496Z,79.97
2022-11-05T23:19:32.131Z,79.92
2022-11-05T23:22:22.827Z,80.17
2022-11-05T23:24:54.173Z,79.82
2022-11-05T23:27:28.887Z,80.14
2022-11-05T23:30:01.773Z,80.08
2022-11-05T23:32:33.714Z,80.36
2022-11-05T23:35:05.404Z,80.88
2022-11-05T23:37:55.491Z,80.72
2022-11-05T23:40:29.926Z,80.45
2022-11-05T23:43:19.697Z,80.83
2022-11-05T23:46:09.400Z,80.39
2022-11-05T23:48:40.770Z,80.17
2022-11-05T23:51:12.359Z,80.78
2022-11-05T23:53:43.802Z,80.52
2022-11-05T23:56:15.644Z,80.32
2022-11-05T23:58:46.943Z,80.35
